Orbital elements of FENGYUN 1C DEB
| Launched | 9 May 1999 |
| Flight ended | – |
| Launch site | Taiyuan Space Center, PRC |
| Owner | People's Republic of China |
| NORAD ID | 29853 |
| Date fetched |
Epoch osculation |
Inc. [°] |
Ecc. | RA asc node [hr] |
Arg Peri. [°] |
Mean anom [°] |
Mean motion [rev/day] |
Abs. mag |
| Date fetched |
Epoch osculation |
Inc. [°] |
Ecc. | RA asc node [hr] |
Arg Peri. [°] |
Mean anom [°] |
Mean motion [rev/day] |
Abs. mag |
| 2026 May 05 17:57 | 2026 May 04 18:52:09 | 98.4654 | 0.01601 | 15.9635 | 184.5069 | 175.4662 | 13.94279 | – |
| 2026 May 04 17:57 | 2026 Apr 30 06:21:48 | 98.4648 | 0.01597 | 15.6870 | 197.0069 | 175.4662 | 13.94279 | – |
| 2026 May 03 17:57 | 2026 Apr 30 06:21:48 | 98.4648 | 0.01597 | 15.6870 | 197.0069 | 175.4662 | 13.94279 | – |
| 2026 May 02 17:57 | 2026 Apr 30 06:21:48 | 98.4648 | 0.01597 | 15.6870 | 197.0069 | 175.4662 | 13.94279 | – |
| 2026 May 01 17:56 | 2026 Apr 30 06:21:48 | 98.4648 | 0.01597 | 15.6870 | 197.0069 | 175.4662 | 13.94279 | – |
| 2026 Apr 30 17:56 | 2026 Apr 30 06:21:48 | 98.4648 | 0.01597 | 15.6870 | 197.0069 | 175.4662 | 13.94279 | – |
| 2026 Apr 29 17:57 | 2026 Apr 24 07:24:36 | 98.4641 | 0.01593 | 15.3227 | 213.5171 | 175.4662 | 13.94279 | – |
| 2026 Apr 28 17:56 | 2026 Apr 24 07:24:36 | 98.4641 | 0.01593 | 15.3227 | 213.5171 | 175.4662 | 13.94279 | – |
| 2026 Apr 27 17:58 | 2026 Apr 24 07:24:36 | 98.4641 | 0.01593 | 15.3227 | 213.5171 | 175.4662 | 13.94279 | – |
| 2026 Apr 26 17:58 | 2026 Apr 24 07:24:36 | 98.4641 | 0.01593 | 15.3227 | 213.5171 | 175.4662 | 13.94279 | – |
| 2026 Apr 25 17:58 | 2026 Apr 24 07:24:36 | 98.4641 | 0.01593 | 15.3227 | 213.5171 | 175.4662 | 13.94279 | – |
| 2026 Apr 24 17:59 | 2026 Apr 24 07:24:36 | 98.4641 | 0.01593 | 15.3227 | 213.5171 | 175.4662 | 13.94279 | – |
| 2026 Apr 23 17:57 | 2026 Apr 15 18:27:00 | 98.4629 | 0.01586 | 14.8005 | 237.2973 | 175.4662 | 13.94279 | – |
| 2026 Apr 22 17:57 | 2026 Apr 15 18:27:00 | 98.4629 | 0.01586 | 14.8005 | 237.2973 | 175.4662 | 13.94279 | – |
| 2026 Apr 21 17:57 | 2026 Apr 15 18:27:00 | 98.4629 | 0.01586 | 14.8005 | 237.2973 | 175.4662 | 13.94279 | – |
| 2026 Apr 20 17:57 | 2026 Apr 15 18:27:00 | 98.4629 | 0.01586 | 14.8005 | 237.2973 | 175.4662 | 13.94279 | – |
| 2026 Apr 19 17:58 | 2026 Apr 15 18:27:00 | 98.4629 | 0.01586 | 14.8005 | 237.2973 | 175.4662 | 13.94279 | – |
| 2026 Apr 18 17:56 | 2026 Apr 13 06:10:03 | 98.4625 | 0.01584 | 14.6469 | 244.3060 | 175.4662 | 13.94279 | – |
| 2026 Apr 16 17:57 | 2026 Apr 13 06:10:03 | 98.4625 | 0.01584 | 14.6469 | 244.3060 | 175.4662 | 13.94279 | – |
| 2026 Apr 14 17:57 | 2026 Apr 13 06:10:03 | 98.4625 | 0.01584 | 14.6469 | 244.3060 | 175.4662 | 13.94279 | – |
| 2026 Apr 13 17:57 | 2026 Apr 13 06:10:03 | 98.4625 | 0.01584 | 14.6469 | 244.3060 | 175.4662 | 13.94279 | – |
| 2026 Apr 12 17:57 | 2026 Apr 08 05:36:06 | 98.4617 | 0.01581 | 14.3397 | 258.3501 | 175.4662 | 13.94279 | – |
| 2026 Apr 11 17:57 | 2026 Apr 08 05:36:06 | 98.4617 | 0.01581 | 14.3397 | 258.3501 | 175.4662 | 13.94279 | – |
| 2026 Apr 10 17:58 | 2026 Apr 08 05:36:06 | 98.4617 | 0.01581 | 14.3397 | 258.3501 | 175.4662 | 13.94279 | – |
| 2026 Apr 09 18:01 | 2026 Apr 08 05:36:06 | 98.4617 | 0.01581 | 14.3397 | 258.3501 | 175.4662 | 13.94279 | – |
| 2026 Apr 08 17:57 | 2026 Apr 08 05:36:06 | 98.4617 | 0.01581 | 14.3397 | 258.3501 | 175.4662 | 13.94279 | – |